Orderville, Utah
Current Conditions -  °F | °C
As of 12:15 PM on Saturday 20 Dec 2014 (Local Time) from KAZC Reporting Station
Clear Clear  
Wind Chill: 44°   Ceiling: Unl
Heat Index: 44°   Visibility: 10mi
Dew Point: 33°   Wind: 3mph
Humidity: 66%   Direction: 140°SE
Pressure: 30.2"   Gusts: NA
Location:  37.28°N, 112.64°W
Report Text: KAZC 201915Z AUTO 14003KT 10SM CLR 07/01 A3020 RMK AO2 T00670007
Loading
Personal Weather Stations






























Interactive Weather Map New forecast layout! Learn more

10-Day Weather Forecast

Advertisements
Track Severe Weather on mobile